sensor_id;sensor_type;location;lat;lon;timestamp;pressure;altitude;pressure_sealevel;temperature;humidity
54980;BME280;44101;50.462;30.432;2022-07-24T00:01:48;97985.13;;;21.19;50.55
54980;BME280;44101;50.462;30.432;2022-07-24T00:04:14;97972.25;;;21.15;50.66
54980;BME280;44101;50.462;30.432;2022-07-24T00:06:41;97980.75;;;21.13;50.97
54980;BME280;44101;50.462;30.432;2022-07-24T00:09:07;97970.63;;;21.08;50.93
54980;BME280;44101;50.462;30.432;2022-07-24T00:11:33;97967.59;;;21.05;50.95
54980;BME280;44101;50.462;30.432;2022-07-24T00:13:59;97956.94;;;20.98;51.06
54980;BME280;44101;50.462;30.432;2022-07-24T00:16:25;97937.22;;;20.91;50.87
54980;BME280;44101;50.462;30.432;2022-07-24T00:18:52;97934.22;;;20.87;51.22
54980;BME280;44101;50.462;30.432;2022-07-24T00:21:17;97940.78;;;20.86;51.68
54980;BME280;44101;50.462;30.432;2022-07-24T00:23:43;97953.69;;;20.86;51.07
54980;BME280;44101;50.462;30.432;2022-07-24T00:26:10;97955.59;;;20.85;51.14
54980;BME280;44101;50.462;30.432;2022-07-24T00:28:36;97960.50;;;20.83;51.01
54980;BME280;44101;50.462;30.432;2022-07-24T00:31:02;97964.34;;;20.82;51.85
54980;BME280;44101;50.462;30.432;2022-07-24T00:33:28;97972.84;;;20.80;51.15
54980;BME280;44101;50.462;30.432;2022-07-24T00:35:53;97972.84;;;20.80;52.09
54980;BME280;44101;50.462;30.432;2022-07-24T00:38:19;97989.28;;;20.80;51.86
54980;BME280;44101;50.462;30.432;2022-07-24T00:40:45;98000.22;;;20.80;52.01
54980;BME280;44101;50.462;30.432;2022-07-24T00:43:10;98016.41;;;20.82;51.90
54980;BME280;44101;50.462;30.432;2022-07-24T00:45:36;98027.06;;;20.83;52.56
54980;BME280;44101;50.462;30.432;2022-07-24T00:48:03;98038.31;;;20.82;52.31
54980;BME280;44101;50.462;30.432;2022-07-24T00:50:29;98031.47;;;20.79;52.06
54980;BME280;44101;50.462;30.432;2022-07-24T00:52:56;98039.97;;;20.78;52.03
54980;BME280;44101;50.462;30.432;2022-07-24T00:55:23;98048.19;;;20.78;52.14
54980;BME280;44101;50.462;30.432;2022-07-24T00:57:49;98050.34;;;20.76;52.25
54980;BME280;44101;50.462;30.432;2022-07-24T01:00:18;98066.53;;;20.77;52.46
54980;BME280;44101;50.462;30.432;2022-07-24T01:02:45;98075.56;;;20.78;52.84
54980;BME280;44101;50.462;30.432;2022-07-24T01:05:11;98088.16;;;20.79;52.54
54980;BME280;44101;50.462;30.432;2022-07-24T01:07:37;98096.66;;;20.77;52.78
54980;BME280;44101;50.462;30.432;2022-07-24T01:10:04;98090.91;;;20.74;52.60
54980;BME280;44101;50.462;30.432;2022-07-24T01:12:32;98074.75;;;20.67;53.08
54980;BME280;44101;50.462;30.432;2022-07-24T01:14:58;98057.47;;;20.61;53.02
54980;BME280;44101;50.462;30.432;2022-07-24T01:17:29;98043.75;;;20.56;52.45
54980;BME280;44101;50.462;30.432;2022-07-24T01:19:55;98036.09;;;20.53;52.93
54980;BME280;44101;50.462;30.432;2022-07-24T01:22:21;98062.41;;;20.54;52.63
54980;BME280;44101;50.462;30.432;2022-07-24T01:24:46;98068.69;;;20.54;53.09
54980;BME280;44101;50.462;30.432;2022-07-24T01:27:13;98074.44;;;20.53;53.16
54980;BME280;44101;50.462;30.432;2022-07-24T01:29:39;98079.94;;;20.53;53.34
54980;BME280;44101;50.462;30.432;2022-07-24T01:32:05;98090.06;;;20.52;53.36
54980;BME280;44101;50.462;30.432;2022-07-24T01:34:31;98093.63;;;20.53;53.65
54980;BME280;44101;50.462;30.432;2022-07-24T01:36:57;98105.69;;;20.52;53.79
54980;BME280;44101;50.462;30.432;2022-07-24T01:39:23;98126.50;;;20.53;53.34
54980;BME280;44101;50.462;30.432;2022-07-24T01:41:48;98136.34;;;20.54;53.85
54980;BME280;44101;50.462;30.432;2022-07-24T01:44:14;98134.97;;;20.51;53.53
54980;BME280;44101;50.462;30.432;2022-07-24T01:46:39;98164.28;;;20.56;52.98
54980;BME280;44101;50.462;30.432;2022-07-24T01:49:05;98174.97;;;20.58;53.86
54980;BME280;44101;50.462;30.432;2022-07-24T01:51:31;98176.31;;;20.55;53.45
54980;BME280;44101;50.462;30.432;2022-07-24T01:53:57;98173.84;;;20.53;53.22
54980;BME280;44101;50.462;30.432;2022-07-24T01:56:23;98174.94;;;20.52;53.87
54980;BME280;44101;50.462;30.432;2022-07-24T01:58:49;98178.53;;;20.53;53.57
54980;BME280;44101;50.462;30.432;2022-07-24T02:01:14;98186.16;;;20.51;54.09
54980;BME280;44101;50.462;30.432;2022-07-24T02:03:40;98181.78;;;20.50;53.63
54980;BME280;44101;50.462;30.432;2022-07-24T02:06:06;98191.94;;;20.49;53.76
54980;BME280;44101;50.462;30.432;2022-07-24T02:08:31;98196.56;;;20.49;53.37
54980;BME280;44101;50.462;30.432;2022-07-24T02:10:57;98199.56;;;20.47;54.14
54980;BME280;44101;50.462;30.432;2022-07-24T02:13:23;98217.38;;;20.50;53.94
54980;BME280;44101;50.462;30.432;2022-07-24T02:15:51;98222.06;;;20.49;54.06
54980;BME280;44101;50.462;30.432;2022-07-24T02:18:18;98227.53;;;20.49;54.13
54980;BME280;44101;50.462;30.432;2022-07-24T02:20:44;98244.50;;;20.51;53.58
54980;BME280;44101;50.462;30.432;2022-07-24T02:23:09;98260.69;;;20.53;54.49
54980;BME280;44101;50.462;30.432;2022-07-24T02:25:36;98261.78;;;20.52;53.76
54980;BME280;44101;50.462;30.432;2022-07-24T02:28:02;98269.72;;;20.53;54.35
54980;BME280;44101;50.462;30.432;2022-07-24T02:30:27;98283.41;;;20.53;54.41
54980;BME280;44101;50.462;30.432;2022-07-24T02:32:54;98302.84;;;20.57;54.69
54980;BME280;44101;50.462;30.432;2022-07-24T02:35:19;98310.28;;;20.56;54.58
54980;BME280;44101;50.462;30.432;2022-07-24T02:37:45;98324.25;;;20.60;54.56
54980;BME280;44101;50.462;30.432;2022-07-24T02:40:13;98350.03;;;20.64;54.71
54980;BME280;44101;50.462;30.432;2022-07-24T02:42:39;98373.88;;;20.69;54.27
54980;BME280;44101;50.462;30.432;2022-07-24T02:45:05;98395.25;;;20.72;54.33
54980;BME280;44101;50.462;30.432;2022-07-24T02:47:32;98410.63;;;20.73;54.59
54980;BME280;44101;50.462;30.432;2022-07-24T02:49:57;98402.41;;;20.73;54.38
54980;BME280;44101;50.462;30.432;2022-07-24T02:52:23;98425.97;;;20.74;54.72
54980;BME280;44101;50.462;30.432;2022-07-24T02:54:49;98423.50;;;20.73;55.02
54980;BME280;44101;50.462;30.432;2022-07-24T02:57:15;98427.06;;;20.73;53.99
54980;BME280;44101;50.462;30.432;2022-07-24T02:59:40;98438.84;;;20.74;54.70
54980;BME280;44101;50.462;30.432;2022-07-24T03:02:06;98443.22;;;20.75;54.76
54980;BME280;44101;50.462;30.432;2022-07-24T03:04:32;98461.88;;;20.78;54.97
54980;BME280;44101;50.462;30.432;2022-07-24T03:06:58;98476.97;;;20.80;54.61
54980;BME280;44101;50.462;30.432;2022-07-24T03:09:23;98500.63;;;20.87;55.04
54980;BME280;44101;50.462;30.432;2022-07-24T03:11:50;98517.59;;;20.89;55.04
54980;BME280;44101;50.462;30.432;2022-07-24T03:14:15;98536.00;;;20.93;55.13
54980;BME280;44101;50.462;30.432;2022-07-24T03:16:42;98562.63;;;20.98;54.89
54980;BME280;44101;50.462;30.432;2022-07-24T03:19:08;98573.06;;;21.01;54.40
54980;BME280;44101;50.462;30.432;2022-07-24T03:21:33;98609.28;;;21.08;54.52
54980;BME280;44101;50.462;30.432;2022-07-24T03:23:59;98638.41;;;21.15;55.17
54980;BME280;44101;50.462;30.432;2022-07-24T03:26:26;98644.47;;;21.17;54.96
54980;BME280;44101;50.462;30.432;2022-07-24T03:28:52;98663.13;;;21.20;54.29
54980;BME280;44101;50.462;30.432;2022-07-24T03:31:18;98677.13;;;21.23;54.47
54980;BME280;44101;50.462;30.432;2022-07-24T03:33:44;98705.44;;;21.29;54.43
54980;BME280;44101;50.462;30.432;2022-07-24T03:36:10;98723.59;;;21.35;55.02
54980;BME280;44101;50.462;30.432;2022-07-24T03:38:35;98756.25;;;21.42;55.25
54980;BME280;44101;50.462;30.432;2022-07-24T03:41:01;98766.72;;;21.45;54.41
54980;BME280;44101;50.462;30.432;2022-07-24T03:43:27;98760.69;;;21.43;55.24
54980;BME280;44101;50.462;30.432;2022-07-24T03:45:52;98759.59;;;21.44;54.53
54980;BME280;44101;50.462;30.432;2022-07-24T03:48:18;98804.41;;;21.55;54.94
54980;BME280;44101;50.462;30.432;2022-07-24T03:50:44;98850.03;;;21.67;55.17
54980;BME280;44101;50.462;30.432;2022-07-24T03:53:09;98882.53;;;21.75;54.46
54980;BME280;44101;50.462;30.432;2022-07-24T03:55:35;98895.75;;;21.78;54.42
54980;BME280;44101;50.462;30.432;2022-07-24T03:58:01;98888.59;;;21.77;54.42
54980;BME280;44101;50.462;30.432;2022-07-24T04:00:27;98907.03;;;21.82;54.40
54980;BME280;44101;50.462;30.432;2022-07-24T04:02:53;98927.38;;;21.86;54.72
54980;BME280;44101;50.462;30.432;2022-07-24T04:05:18;98944.72;;;21.92;54.88
54980;BME280;44101;50.462;30.432;2022-07-24T04:07:44;98959.59;;;21.96;54.63
54980;BME280;44101;50.462;30.432;2022-07-24T04:10:10;99008.84;;;22.08;54.92
54980;BME280;44101;50.462;30.432;2022-07-24T04:12:35;99013.81;;;22.11;54.73
54980;BME280;44101;50.462;30.432;2022-07-24T04:15:01;99054.03;;;22.22;54.77
54980;BME280;44101;50.462;30.432;2022-07-24T04:17:27;99111.06;;;22.37;54.96
54980;BME280;44101;50.462;30.432;2022-07-24T04:19:53;99137.75;;;22.42;54.38
54980;BME280;44101;50.462;30.432;2022-07-24T04:22:19;99138.31;;;22.44;54.72
54980;BME280;44101;50.462;30.432;2022-07-24T04:24:44;99162.63;;;22.52;54.47
54980;BME280;44101;50.462;30.432;2022-07-24T04:27:10;99205.88;;;22.62;54.19
54980;BME280;44101;50.462;30.432;2022-07-24T04:29:36;99259.06;;;22.78;54.10
54980;BME280;44101;50.462;30.432;2022-07-24T04:32:01;99270.38;;;22.82;53.90
54980;BME280;44101;50.462;30.432;2022-07-24T04:34:27;99277.03;;;22.86;54.07
54980;BME280;44101;50.462;30.432;2022-07-24T04:36:59;99313.72;;;22.97;53.87
54980;BME280;44101;50.462;30.432;2022-07-24T04:39:24;99318.72;;;23.00;53.84
54980;BME280;44101;50.462;30.432;2022-07-24T04:41:50;99335.25;;;23.05;53.72
54980;BME280;44101;50.462;30.432;2022-07-24T04:44:16;99294.22;;;22.98;54.38
54980;BME280;44101;50.462;30.432;2022-07-24T04:46:42;99271.91;;;22.95;53.69
54980;BME280;44101;50.462;30.432;2022-07-24T04:49:08;99271.66;;;22.96;53.91
54980;BME280;44101;50.462;30.432;2022-07-24T04:51:33;99239.09;;;22.88;54.13
54980;BME280;44101;50.462;30.432;2022-07-24T04:53:59;99223.47;;;22.89;53.71
54980;BME280;44101;50.462;30.432;2022-07-24T04:56:25;99235.84;;;22.91;54.25
54980;BME280;44101;50.462;30.432;2022-07-24T04:58:56;99219.59;;;22.90;54.12
54980;BME280;44101;50.462;30.432;2022-07-24T05:01:22;99233.41;;;22.95;53.75
54980;BME280;44101;50.462;30.432;2022-07-24T05:03:48;99234.22;;;22.95;53.75
54980;BME280;44101;50.462;30.432;2022-07-24T05:06:13;99233.16;;;22.96;54.11
54980;BME280;44101;50.462;30.432;2022-07-24T05:08:39;99210.56;;;22.94;54.06
54980;BME280;44101;50.462;30.432;2022-07-24T05:11:05;99278.41;;;23.11;53.36
54980;BME280;44101;50.462;30.432;2022-07-24T05:13:30;99314.50;;;23.20;53.47
54980;BME280;44101;50.462;30.432;2022-07-24T05:15:56;99313.97;;;23.23;53.93
54980;BME280;44101;50.462;30.432;2022-07-24T05:18:22;99292.75;;;23.18;53.83
54980;BME280;44101;50.462;30.432;2022-07-24T05:20:48;99297.47;;;23.23;53.71
54980;BME280;44101;50.462;30.432;2022-07-24T05:23:13;99290.31;;;23.22;53.35
54980;BME280;44101;50.462;30.432;2022-07-24T05:25:39;99336.97;;;23.34;53.96
54980;BME280;44101;50.462;30.432;2022-07-24T05:28:05;99384.97;;;23.48;53.45
54980;BME280;44101;50.462;30.432;2022-07-24T05:30:31;99467.78;;;23.69;53.84
54980;BME280;44101;50.462;30.432;2022-07-24T05:32:57;99498.16;;;23.80;53.66
54980;BME280;44101;50.462;30.432;2022-07-24T05:35:23;99522.50;;;23.88;53.41
54980;BME280;44101;50.462;30.432;2022-07-24T05:37:49;99566.16;;;24.01;53.22
54980;BME280;44101;50.462;30.432;2022-07-24T05:40:14;99617.00;;;24.16;52.96
54980;BME280;44101;50.462;30.432;2022-07-24T05:42:40;99635.84;;;24.24;52.95
54980;BME280;44101;50.462;30.432;2022-07-24T05:45:07;99632.00;;;24.25;53.30
54980;BME280;44101;50.462;30.432;2022-07-24T05:47:40;99633.72;;;24.31;53.27
54980;BME280;44101;50.462;30.432;2022-07-24T05:50:09;99657.50;;;24.38;52.81
54980;BME280;44101;50.462;30.432;2022-07-24T05:52:37;99630.44;;;24.35;52.83
54980;BME280;44101;50.462;30.432;2022-07-24T05:55:04;99646.78;;;24.41;52.96
54980;BME280;44101;50.462;30.432;2022-07-24T05:57:30;99700.13;;;24.57;52.65
54980;BME280;44101;50.462;30.432;2022-07-24T05:59:56;99767.03;;;24.75;52.78
54980;BME280;44101;50.462;30.432;2022-07-24T06:02:22;99751.34;;;24.76;52.88
54980;BME280;44101;50.462;30.432;2022-07-24T06:04:47;99736.97;;;24.74;52.79
54980;BME280;44101;50.462;30.432;2022-07-24T06:07:13;99764.44;;;24.85;52.32
54980;BME280;44101;50.462;30.432;2022-07-24T06:09:39;99762.25;;;24.88;52.50
54980;BME280;44101;50.462;30.432;2022-07-24T06:12:05;99781.09;;;24.96;52.57
54980;BME280;44101;50.462;30.432;2022-07-24T06:14:31;99802.69;;;25.04;52.25
54980;BME280;44101;50.462;30.432;2022-07-24T06:16:57;99822.63;;;25.11;52.20
54980;BME280;44101;50.462;30.432;2022-07-24T06:19:24;99847.81;;;25.20;52.30
54980;BME280;44101;50.462;30.432;2022-07-24T06:21:49;99837.94;;;25.24;52.33
54980;BME280;44101;50.462;30.432;2022-07-24T06:24:15;99876.66;;;25.35;51.81
54980;BME280;44101;50.462;30.432;2022-07-24T06:26:41;99916.00;;;25.47;52.04
54980;BME280;44101;50.462;30.432;2022-07-24T06:29:07;99894.19;;;25.46;51.88
54980;BME280;44101;50.462;30.432;2022-07-24T06:31:33;99861.81;;;25.41;52.03
54980;BME280;44101;50.462;30.432;2022-07-24T06:33:58;99820.94;;;25.38;51.81
54980;BME280;44101;50.462;30.432;2022-07-24T06:36:24;99855.00;;;25.49;51.97
54980;BME280;44101;50.462;30.432;2022-07-24T06:38:50;99879.97;;;25.59;51.84
54980;BME280;44101;50.462;30.432;2022-07-24T06:41:15;99937.03;;;25.76;51.51
54980;BME280;44101;50.462;30.432;2022-07-24T06:43:42;99936.47;;;25.79;51.89
54980;BME280;44101;50.462;30.432;2022-07-24T06:46:09;99879.22;;;25.69;51.95
54980;BME280;44101;50.462;30.432;2022-07-24T06:48:35;99847.16;;;25.63;51.55
54980;BME280;44101;50.462;30.432;2022-07-24T06:51:01;99839.16;;;25.67;50.96
54980;BME280;44101;50.462;30.432;2022-07-24T06:53:28;99840.31;;;25.71;51.02
54980;BME280;44101;50.462;30.432;2022-07-24T06:55:54;99866.31;;;25.80;51.55
54980;BME280;44101;50.462;30.432;2022-07-24T06:58:21;99866.66;;;25.84;51.16
54980;BME280;44101;50.462;30.432;2022-07-24T07:00:49;99905.13;;;25.96;51.36
54980;BME280;44101;50.462;30.432;2022-07-24T07:03:15;99915.97;;;26.02;50.75
54980;BME280;44101;50.462;30.432;2022-07-24T07:05:42;99906.34;;;26.05;50.64
54980;BME280;44101;50.462;30.432;2022-07-24T07:08:08;99919.91;;;26.12;50.68
54980;BME280;44101;50.462;30.432;2022-07-24T07:10:33;99958.16;;;26.25;50.66
54980;BME280;44101;50.462;30.432;2022-07-24T07:12:59;100022.19;;;26.44;49.99
54980;BME280;44101;50.462;30.432;2022-07-24T07:15:25;100044.66;;;26.53;50.67
54980;BME280;44101;50.462;30.432;2022-07-24T07:17:50;99986.78;;;26.46;49.90
54980;BME280;44101;50.462;30.432;2022-07-24T07:20:16;99953.31;;;26.43;50.42
54980;BME280;44101;50.462;30.432;2022-07-24T07:22:42;99979.38;;;26.52;50.25
54980;BME280;44101;50.462;30.432;2022-07-24T07:25:09;100081.38;;;26.81;49.71
54980;BME280;44101;50.462;30.432;2022-07-24T07:27:39;100181.78;;;27.09;49.12
54980;BME280;44101;50.462;30.432;2022-07-24T07:30:06;100214.28;;;27.24;49.70
54980;BME280;44101;50.462;30.432;2022-07-24T07:32:32;100208.47;;;27.26;49.28
54980;BME280;44101;50.462;30.432;2022-07-24T07:34:58;100273.16;;;27.47;49.41
54980;BME280;44101;50.462;30.432;2022-07-24T07:37:25;100282.91;;;27.55;48.82
54980;BME280;44101;50.462;30.432;2022-07-24T07:39:51;100122.91;;;27.24;48.46
54980;BME280;44101;50.462;30.432;2022-07-24T07:42:16;100018.16;;;27.06;48.30
54980;BME280;44101;50.462;30.432;2022-07-24T07:44:43;99937.56;;;26.92;48.31
54980;BME280;44101;50.462;30.432;2022-07-24T07:47:10;100029.03;;;27.18;48.26
54980;BME280;44101;50.462;30.432;2022-07-24T07:49:37;100173.75;;;27.56;48.08
54980;BME280;44101;50.462;30.432;2022-07-24T07:52:03;100261.78;;;27.82;47.68
54980;BME280;44101;50.462;30.432;2022-07-24T07:54:29;100338.09;;;28.05;47.18
54980;BME280;44101;50.462;30.432;2022-07-24T07:56:55;100293.72;;;28.00;47.45
54980;BME280;44101;50.462;30.432;2022-07-24T07:59:21;100270.19;;;28.02;47.09
54980;BME280;44101;50.462;30.432;2022-07-24T08:01:47;100343.81;;;28.26;46.75
54980;BME280;44101;50.462;30.432;2022-07-24T08:04:12;100390.75;;;28.43;46.69
54980;BME280;44101;50.462;30.432;2022-07-24T08:06:38;100352.47;;;28.40;46.62
54980;BME280;44101;50.462;30.432;2022-07-24T08:09:04;100396.66;;;28.57;46.12
54980;BME280;44101;50.462;30.432;2022-07-24T08:11:30;100452.50;;;28.76;45.98
54980;BME280;44101;50.462;30.432;2022-07-24T08:13:55;100319.78;;;28.52;45.57
54980;BME280;44101;50.462;30.432;2022-07-24T08:16:21;100189.94;;;28.28;45.26
54980;BME280;44101;50.462;30.432;2022-07-24T08:18:47;100132.44;;;28.18;45.14
54980;BME280;44101;50.462;30.432;2022-07-24T08:21:13;100048.44;;;28.02;45.61
54980;BME280;44101;50.462;30.432;2022-07-24T08:23:41;100067.00;;;28.12;45.06
54980;BME280;44101;50.462;30.432;2022-07-24T08:26:07;100076.72;;;28.20;45.03
54980;BME280;44101;50.462;30.432;2022-07-24T08:28:32;100031.25;;;28.16;44.50
54980;BME280;44101;50.462;30.432;2022-07-24T08:30:58;99979.16;;;28.08;44.26
54980;BME280;44101;50.462;30.432;2022-07-24T08:33:23;99949.22;;;28.04;44.50
54980;BME280;44101;50.462;30.432;2022-07-24T08:35:49;99953.94;;;28.09;44.12
54980;BME280;44101;50.462;30.432;2022-07-24T08:38:15;99969.72;;;28.19;44.15
54980;BME280;44101;50.462;30.432;2022-07-24T08:40:40;100013.56;;;28.32;44.34
54980;BME280;44101;50.462;30.432;2022-07-24T08:43:08;100015.22;;;28.39;43.60
54980;BME280;44101;50.462;30.432;2022-07-24T08:45:37;100085.38;;;28.60;43.42
54980;BME280;44101;50.462;30.432;2022-07-24T08:48:04;100142.00;;;28.80;43.86
54980;BME280;44101;50.462;30.432;2022-07-24T08:50:33;100266.38;;;29.14;43.52
54980;BME280;44101;50.462;30.432;2022-07-24T08:52:59;100414.47;;;29.56;43.60
54980;BME280;44101;50.462;30.432;2022-07-24T08:55:28;100444.50;;;29.70;43.20
54980;BME280;44101;50.462;30.432;2022-07-24T08:57:56;100364.16;;;29.58;42.96
54980;BME280;44101;50.462;30.432;2022-07-24T09:00:23;100294.13;;;29.45;42.77
54980;BME280;44101;50.462;30.432;2022-07-24T09:02:49;100238.88;;;29.38;42.63
54980;BME280;44101;50.462;30.432;2022-07-24T09:05:15;100224.41;;;29.42;42.48
54980;BME280;44101;50.462;30.432;2022-07-24T09:07:40;100191.34;;;29.40;42.12
54980;BME280;44101;50.462;30.432;2022-07-24T09:10:09;100184.41;;;29.43;42.23
54980;BME280;44101;50.462;30.432;2022-07-24T09:12:40;100246.66;;;29.62;41.79
54980;BME280;44101;50.462;30.432;2022-07-24T09:15:24;100400.81;;;30.06;42.00
54980;BME280;44101;50.462;30.432;2022-07-24T09:17:56;100580.47;;;30.54;41.41
54980;BME280;44101;50.462;30.432;2022-07-24T09:20:25;100569.94;;;30.62;41.47
54980;BME280;44101;50.462;30.432;2022-07-24T09:22:52;100512.88;;;30.54;41.52
54980;BME280;44101;50.462;30.432;2022-07-24T09:25:26;100432.78;;;30.40;41.17
54980;BME280;44101;50.462;30.432;2022-07-24T09:27:57;100368.25;;;30.33;41.35
54980;BME280;44101;50.462;30.432;2022-07-24T09:30:35;100314.31;;;30.24;40.90
54980;BME280;44101;50.462;30.432;2022-07-24T09:33:03;100212.56;;;30.07;40.61
54980;BME280;44101;50.462;30.432;2022-07-24T09:35:34;100198.66;;;30.07;40.73
54980;BME280;44101;50.462;30.432;2022-07-24T09:38:02;100143.38;;;30.00;40.05
54980;BME280;44101;50.462;30.432;2022-07-24T09:40:38;100065.03;;;29.88;40.19
54980;BME280;44101;50.462;30.432;2022-07-24T09:48:26;99833.31;;;29.44;40.23
54980;BME280;44101;50.462;30.432;2022-07-24T09:50:54;99723.78;;;29.20;40.26
54980;BME280;44101;50.462;30.432;2022-07-24T09:53:25;99644.25;;;29.05;40.22
54980;BME280;44101;50.462;30.432;2022-07-24T09:55:58;99640.34;;;29.06;40.08
54980;BME280;44101;50.462;30.432;2022-07-24T09:58:26;99547.84;;;28.86;40.07
54980;BME280;44101;50.462;30.432;2022-07-24T10:00:56;99542.81;;;28.89;39.89
54980;BME280;44101;50.462;30.432;2022-07-24T10:03:28;99537.25;;;28.89;39.80
54980;BME280;44101;50.462;30.432;2022-07-24T10:05:57;99611.72;;;29.11;39.75
54980;BME280;44101;50.462;30.432;2022-07-24T10:08:24;99689.78;;;29.34;39.96
54980;BME280;44101;50.462;30.432;2022-07-24T10:10:50;99680.66;;;29.33;39.40
54980;BME280;44101;50.462;30.432;2022-07-24T10:13:17;99677.59;;;29.35;39.62
54980;BME280;44101;50.462;30.432;2022-07-24T10:16:36;99546.28;;;29.05;39.74
54980;BME280;44101;50.462;30.432;2022-07-24T10:18:58;99341.13;;;28.59;39.67
54980;BME280;44101;50.462;30.432;2022-07-24T10:21:30;99255.41;;;28.39;40.01
54980;BME280;44101;50.462;30.432;2022-07-24T10:24:11;99243.78;;;28.37;39.77
54980;BME280;44101;50.462;30.432;2022-07-24T10:29:12;99252.06;;;28.42;40.00
54980;BME280;44101;50.462;30.432;2022-07-24T10:31:39;99133.72;;;28.13;39.56
54980;BME280;44101;50.462;30.432;2022-07-24T10:42:15;99189.25;;;28.32;39.43
54980;BME280;44101;50.462;30.432;2022-07-24T10:44:41;99267.72;;;28.52;39.53
54980;BME280;44101;50.462;30.432;2022-07-24T10:47:09;99311.66;;;28.64;39.80
54980;BME280;44101;50.462;30.432;2022-07-24T10:52:32;99134.16;;;28.25;39.82
54980;BME280;44101;50.462;30.432;2022-07-24T10:58:15;99088.25;;;28.14;39.40
54980;BME280;44101;50.462;30.432;2022-07-24T11:00:50;99062.88;;;28.06;39.74
54980;BME280;44101;50.462;30.432;2022-07-24T11:03:28;99133.84;;;28.27;39.49
54980;BME280;44101;50.462;30.432;2022-07-24T11:06:08;99160.91;;;28.35;39.66
54980;BME280;44101;50.462;30.432;2022-07-24T11:08:50;99158.13;;;28.35;39.86
54980;BME280;44101;50.462;30.432;2022-07-24T11:11:18;99103.94;;;28.24;39.41
54980;BME280;44101;50.462;30.432;2022-07-24T11:13:54;99072.47;;;28.14;39.90
54980;BME280;44101;50.462;30.432;2022-07-24T11:16:27;99118.63;;;28.24;40.10
54980;BME280;44101;50.462;30.432;2022-07-24T11:21:38;99189.00;;;28.48;40.10
54980;BME280;44101;50.462;30.432;2022-07-24T11:29:18;99192.34;;;28.50;40.35
54980;BME280;44101;50.462;30.432;2022-07-24T11:31:47;99138.44;;;28.37;40.19
54980;BME280;44101;50.462;30.432;2022-07-24T11:34:13;99023.22;;;28.06;40.93
54980;BME280;44101;50.462;30.432;2022-07-24T11:36:45;98894.09;;;27.72;40.75
54980;BME280;44101;50.462;30.432;2022-07-24T11:39:14;98732.16;;;27.31;41.67
54980;BME280;44101;50.462;30.432;2022-07-24T11:41:46;98722.00;;;27.26;41.86
54980;BME280;44101;50.462;30.432;2022-07-24T11:44:14;98711.00;;;27.21;42.00
54980;BME280;44101;50.462;30.432;2022-07-24T11:46:43;98705.47;;;27.21;42.23
54980;BME280;44101;50.462;30.432;2022-07-24T11:49:09;98715.19;;;27.18;42.65
54980;BME280;44101;50.462;30.432;2022-07-24T11:51:42;98610.47;;;26.92;43.02
54980;BME280;44101;50.462;30.432;2022-07-24T11:54:09;98597.81;;;26.86;43.04
54980;BME280;44101;50.462;30.432;2022-07-24T11:56:36;98635.06;;;26.94;43.26
54980;BME280;44101;50.462;30.432;2022-07-24T11:59:02;98544.72;;;26.70;43.84
54980;BME280;44101;50.462;30.432;2022-07-24T12:01:28;98519.97;;;26.59;43.62
54980;BME280;44101;50.462;30.432;2022-07-24T12:03:59;98467.41;;;26.45;43.85
54980;BME280;44101;50.462;30.432;2022-07-24T12:06:29;98361.75;;;26.15;44.26
54980;BME280;44101;50.462;30.432;2022-07-24T12:09:08;98368.41;;;26.14;45.05
54980;BME280;44101;50.462;30.432;2022-07-24T12:11:34;98372.28;;;26.13;44.62
54980;BME280;44101;50.462;30.432;2022-07-24T12:14:00;98347.31;;;26.04;44.86
54980;BME280;44101;50.462;30.432;2022-07-24T12:16:27;98331.94;;;25.98;45.54
54980;BME280;44101;50.462;30.432;2022-07-24T12:19:34;98282.47;;;25.83;45.63
54980;BME280;44101;50.462;30.432;2022-07-24T12:22:00;98222.31;;;25.65;46.14
54980;BME280;44101;50.462;30.432;2022-07-24T12:24:25;98188.56;;;25.55;45.98
54980;BME280;44101;50.462;30.432;2022-07-24T12:26:53;98156.69;;;25.43;46.06
54980;BME280;44101;50.462;30.432;2022-07-24T12:29:21;98103.72;;;25.27;46.71
54980;BME280;44101;50.462;30.432;2022-07-24T12:31:48;98045.53;;;25.09;46.97
54980;BME280;44101;50.462;30.432;2022-07-24T12:34:15;98002.81;;;24.93;47.27
54980;BME280;44101;50.462;30.432;2022-07-24T12:36:41;97948.72;;;24.78;47.71
54980;BME280;44101;50.462;30.432;2022-07-24T12:39:07;97929.31;;;24.69;48.15
54980;BME280;44101;50.462;30.432;2022-07-24T12:41:42;97920.63;;;24.62;47.86
54980;BME280;44101;50.462;30.432;2022-07-24T12:44:08;97895.69;;;24.53;48.17
54980;BME280;44101;50.462;30.432;2022-07-24T12:46:44;97858.72;;;24.40;48.75
54980;BME280;44101;50.462;30.432;2022-07-24T12:49:17;97820.94;;;24.26;48.82
54980;BME280;44101;50.462;30.432;2022-07-24T12:51:49;97789.19;;;24.15;49.05
54980;BME280;44101;50.462;30.432;2022-07-24T12:54:24;97774.75;;;24.04;49.18
54980;BME280;44101;50.462;30.432;2022-07-24T12:56:52;97747.41;;;23.94;50.11
54980;BME280;44101;50.462;30.432;2022-07-24T12:59:28;97729.13;;;23.84;50.29
54980;BME280;44101;50.462;30.432;2022-07-24T13:01:57;97714.94;;;23.76;50.01
54980;BME280;44101;50.462;30.432;2022-07-24T13:04:25;97704.09;;;23.66;50.38
54980;BME280;44101;50.462;30.432;2022-07-24T13:06:53;97685.22;;;23.59;51.34
54980;BME280;44101;50.462;30.432;2022-07-24T13:09:20;97677.38;;;23.53;50.98
54980;BME280;44101;50.462;30.432;2022-07-24T13:11:47;97661.53;;;23.44;51.87
54980;BME280;44101;50.462;30.432;2022-07-24T13:14:15;97636.44;;;23.32;51.74
54980;BME280;44101;50.462;30.432;2022-07-24T13:16:42;97581.97;;;23.15;52.10
54980;BME280;44101;50.462;30.432;2022-07-24T13:19:09;97540.69;;;23.01;52.91